createdAt,value
2018-09-25T00:00:32.253Z,20.77
2018-09-25T00:01:32.152Z,20.8
2018-09-25T00:02:32.384Z,20.81
2018-09-25T00:03:32.161Z,20.8
2018-09-25T00:04:32.441Z,20.8
2018-09-25T00:05:32.159Z,20.8
2018-09-25T00:06:32.352Z,20.77
2018-09-25T00:07:32.159Z,20.78
2018-09-25T00:08:32.181Z,20.77
2018-09-25T00:09:32.274Z,20.75
2018-09-25T00:10:32.286Z,20.77
2018-09-25T00:11:32.095Z,20.77
2018-09-25T00:12:32.416Z,20.77
2018-09-25T00:13:32.328Z,20.78
2018-09-25T00:14:32.330Z,20.77
2018-09-25T00:15:32.258Z,20.78
2018-09-25T00:16:32.154Z,20.78
2018-09-25T00:17:32.165Z,20.77
2018-09-25T00:18:32.427Z,20.74
2018-09-25T00:19:32.057Z,20.72
2018-09-25T00:20:32.421Z,20.77
2018-09-25T00:21:32.335Z,20.75
2018-09-25T00:22:32.062Z,20.77
2018-09-25T00:23:32.368Z,20.75
2018-09-25T00:24:32.297Z,20.75
2018-09-25T00:25:32.251Z,20.77
2018-09-25T00:26:32.223Z,20.75
2018-09-25T00:27:32.209Z,20.74
2018-09-25T00:28:32.182Z,20.75
2018-09-25T00:29:32.124Z,20.75
2018-09-25T00:30:32.165Z,20.74
2018-09-25T00:31:32.176Z,20.72
2018-09-25T00:32:32.414Z,20.75
2018-09-25T00:33:32.141Z,20.75
2018-09-25T00:34:32.223Z,20.75
2018-09-25T00:35:31.910Z,20.75
2018-09-25T00:36:31.974Z,20.77
2018-09-25T00:37:32.731Z,20.72
2018-09-25T00:38:32.108Z,20.77
2018-09-25T00:39:32.178Z,20.75
2018-09-25T00:40:32.352Z,20.78
2018-09-25T00:41:31.965Z,20.77
2018-09-25T00:42:32.132Z,20.77
2018-09-25T00:43:32.169Z,20.77
2018-09-25T00:44:31.986Z,20.72
2018-09-25T00:45:32.195Z,20.74
2018-09-25T00:46:32.140Z,20.74
2018-09-25T00:47:32.275Z,20.72
2018-09-25T00:48:32.179Z,20.72
2018-09-25T00:49:32.041Z,20.72
2018-09-25T00:50:32.121Z,20.74
2018-09-25T00:51:32.042Z,20.74
2018-09-25T00:52:32.214Z,20.75
2018-09-25T00:53:32.267Z,20.72
2018-09-25T00:54:32.490Z,20.74
2018-09-25T00:55:32.248Z,20.77
2018-09-25T00:56:32.094Z,20.71
2018-09-25T00:57:32.243Z,20.74
2018-09-25T00:58:32.151Z,20.72
2018-09-25T00:59:32.345Z,20.7
2018-09-25T01:00:32.261Z,20.72
2018-09-25T01:01:32.321Z,20.71
2018-09-25T01:02:32.041Z,20.71
2018-09-25T01:03:32.608Z,20.71
2018-09-25T01:04:32.011Z,20.72
2018-09-25T01:05:32.336Z,20.72
2018-09-25T01:06:32.294Z,20.72
2018-09-25T01:07:32.057Z,20.71
2018-09-25T01:08:32.136Z,20.71
2018-09-25T01:09:32.126Z,20.77
2018-09-25T01:10:32.078Z,20.74
2018-09-25T01:11:32.371Z,20.75
2018-09-25T01:12:31.904Z,20.74
2018-09-25T01:13:32.292Z,20.72
2018-09-25T01:14:32.226Z,20.74
2018-09-25T01:15:32.426Z,20.74
2018-09-25T01:16:32.200Z,20.74
2018-09-25T01:17:32.312Z,20.71
2018-09-25T01:18:32.150Z,20.72
2018-09-25T01:19:32.502Z,20.68
2018-09-25T01:20:32.228Z,20.71
2018-09-25T01:21:32.148Z,20.7
2018-09-25T01:22:32.114Z,20.71
2018-09-25T01:23:32.123Z,20.72
2018-09-25T01:24:32.230Z,20.72
2018-09-25T01:25:32.202Z,20.71
2018-09-25T01:26:32.041Z,20.7
2018-09-25T01:27:32.013Z,20.71
2018-09-25T01:28:32.332Z,20.71
2018-09-25T01:29:32.186Z,20.67
2018-09-25T01:30:32.098Z,20.68
2018-09-25T01:31:32.209Z,20.7
2018-09-25T01:32:32.171Z,20.68
2018-09-25T01:33:32.281Z,20.7
2018-09-25T01:34:32.300Z,20.7
2018-09-25T01:35:32.240Z,20.68
2018-09-25T01:36:32.240Z,20.67
2018-09-25T01:37:32.224Z,20.67
2018-09-25T01:38:32.132Z,20.67
2018-09-25T01:39:32.134Z,20.68
2018-09-25T01:40:32.389Z,20.68
2018-09-25T01:41:32.174Z,20.67
2018-09-25T01:42:32.450Z,20.68
2018-09-25T01:43:32.139Z,20.7
2018-09-25T01:44:32.149Z,20.68
2018-09-25T01:45:32.244Z,20.67
2018-09-25T01:46:32.180Z,20.68
2018-09-25T01:47:32.355Z,20.67
2018-09-25T01:48:32.220Z,20.68
2018-09-25T01:49:32.258Z,20.68
2018-09-25T01:50:32.223Z,20.68
2018-09-25T01:51:32.159Z,20.7
2018-09-25T01:52:32.352Z,20.7
2018-09-25T01:53:32.019Z,20.7
2018-09-25T01:54:32.571Z,20.7
2018-09-25T01:55:32.109Z,20.71
2018-09-25T01:56:32.014Z,20.7
2018-09-25T01:57:32.058Z,20.67
2018-09-25T01:58:32.147Z,20.68
2018-09-25T01:59:32.122Z,20.66
2018-09-25T02:00:32.062Z,20.68
2018-09-25T02:01:32.012Z,20.66
2018-09-25T02:02:31.968Z,20.68
2018-09-25T02:03:32.162Z,20.66
2018-09-25T02:04:31.929Z,20.67
2018-09-25T02:05:31.980Z,20.68
2018-09-25T02:06:32.278Z,20.67
2018-09-25T02:07:31.885Z,20.64
2018-09-25T02:08:32.142Z,20.67
2018-09-25T02:09:32.170Z,20.67
2018-09-25T02:10:32.009Z,20.64
2018-09-25T02:11:32.037Z,20.63
2018-09-25T02:12:32.013Z,20.64
2018-09-25T02:13:32.411Z,20.66
2018-09-25T02:14:32.236Z,20.64
2018-09-25T02:15:32.107Z,20.66
2018-09-25T02:16:32.046Z,20.66
2018-09-25T02:17:31.898Z,20.67
2018-09-25T02:18:32.009Z,20.67
2018-09-25T02:19:32.398Z,20.66
2018-09-25T02:20:32.037Z,20.66
2018-09-25T02:21:32.013Z,20.66
2018-09-25T02:22:32.181Z,20.67
2018-09-25T02:23:32.107Z,20.67
2018-09-25T02:24:31.910Z,20.67
2018-09-25T02:25:32.081Z,20.66
2018-09-25T02:26:32.080Z,20.66
2018-09-25T02:27:32.230Z,20.66
2018-09-25T02:28:32.051Z,20.66
2018-09-25T02:29:32.145Z,20.66
2018-09-25T02:30:31.953Z,20.66
2018-09-25T02:31:32.052Z,20.63
2018-09-25T02:32:32.028Z,20.61
2018-09-25T02:33:32.165Z,20.63
2018-09-25T02:34:31.941Z,20.61
2018-09-25T02:35:32.293Z,20.63
2018-09-25T02:36:32.651Z,20.64
2018-09-25T02:37:32.638Z,20.64
2018-09-25T02:38:32.178Z,20.66
2018-09-25T02:39:32.414Z,20.63
2018-09-25T02:40:32.293Z,20.63
2018-09-25T02:41:32.181Z,20.66
2018-09-25T02:42:32.316Z,20.63
2018-09-25T02:43:32.060Z,20.64
2018-09-25T02:44:32.083Z,20.64
2018-09-25T02:45:32.243Z,20.67
2018-09-25T02:46:31.982Z,20.64
2018-09-25T02:47:32.292Z,20.66
2018-09-25T02:48:32.167Z,20.64
2018-09-25T02:49:32.000Z,20.61
2018-09-25T02:50:32.093Z,20.63
2018-09-25T02:51:31.876Z,20.64
2018-09-25T02:52:32.213Z,20.61
2018-09-25T02:53:32.325Z,20.63
2018-09-25T02:54:31.995Z,20.63
2018-09-25T02:55:31.968Z,20.64
2018-09-25T02:56:32.115Z,20.66
2018-09-25T02:57:31.977Z,20.64
2018-09-25T02:58:32.104Z,20.64
2018-09-25T02:59:32.090Z,20.63
2018-09-25T03:00:32.248Z,20.63
2018-09-25T03:01:32.135Z,20.66
2018-09-25T03:02:32.172Z,20.63
2018-09-25T03:03:32.456Z,20.63
2018-09-25T03:04:32.053Z,20.61
2018-09-25T03:05:32.389Z,20.61
2018-09-25T03:06:32.396Z,20.61
2018-09-25T03:07:32.073Z,20.61
2018-09-25T03:08:32.154Z,20.61
2018-09-25T03:09:31.971Z,20.61
2018-09-25T03:10:32.234Z,20.63
2018-09-25T03:11:32.441Z,20.6
2018-09-25T03:12:32.195Z,20.6
2018-09-25T03:13:32.098Z,20.57
2018-09-25T03:14:32.097Z,20.61
2018-09-25T03:15:32.028Z,20.61
2018-09-25T03:16:32.221Z,20.59
2018-09-25T03:17:32.084Z,20.6
2018-09-25T03:18:32.152Z,20.61
2018-09-25T03:19:31.929Z,20.59
2018-09-25T03:20:32.166Z,20.61
2018-09-25T03:21:32.137Z,20.6
2018-09-25T03:22:32.016Z,20.61
2018-09-25T03:23:32.064Z,20.6
2018-09-25T03:24:32.248Z,20.57
2018-09-25T03:25:32.368Z,20.6
2018-09-25T03:26:32.111Z,20.61
2018-09-25T03:27:32.114Z,20.59
2018-09-25T03:28:32.079Z,20.59
2018-09-25T03:29:32.129Z,20.57
2018-09-25T03:30:31.937Z,20.61
2018-09-25T03:31:32.287Z,20.59
2018-09-25T03:32:32.188Z,20.59
2018-09-25T03:33:32.445Z,20.59
2018-09-25T03:34:31.880Z,20.6
2018-09-25T03:35:31.959Z,20.59
2018-09-25T03:36:32.004Z,20.57
2018-09-25T03:37:31.923Z,20.57
2018-09-25T03:38:32.199Z,20.55
2018-09-25T03:39:32.072Z,20.57
2018-09-25T03:40:31.999Z,20.55
2018-09-25T03:41:32.147Z,20.57
2018-09-25T03:42:31.978Z,20.57
2018-09-25T03:43:31.964Z,20.57
2018-09-25T03:44:32.019Z,20.57
2018-09-25T03:45:32.140Z,20.59
2018-09-25T03:46:32.574Z,20.57
2018-09-25T03:47:32.006Z,20.57
2018-09-25T03:48:32.091Z,20.57
2018-09-25T03:49:32.175Z,20.59
2018-09-25T03:50:31.986Z,20.6
2018-09-25T03:51:32.246Z,20.57
2018-09-25T03:52:31.973Z,20.57
2018-09-25T03:53:32.216Z,20.59
2018-09-25T03:54:32.308Z,20.6
2018-09-25T03:55:31.971Z,20.57
2018-09-25T03:56:32.235Z,20.59
2018-09-25T03:57:31.976Z,20.59
2018-09-25T03:58:32.136Z,20.55
2018-09-25T03:59:33.121Z,20.57
2018-09-25T04:00:32.126Z,20.57
2018-09-25T04:01:32.058Z,20.57
2018-09-25T04:02:32.001Z,20.54
2018-09-25T04:03:32.168Z,20.53
2018-09-25T04:04:31.972Z,20.53
2018-09-25T04:05:32.405Z,20.54
2018-09-25T04:06:32.006Z,20.53
2018-09-25T04:07:32.158Z,20.53
2018-09-25T04:08:32.335Z,20.54
2018-09-25T04:09:32.015Z,20.53
2018-09-25T04:10:32.224Z,20.51
2018-09-25T04:11:32.114Z,20.53
2018-09-25T04:12:32.355Z,20.53
2018-09-25T04:13:32.021Z,20.55
2018-09-25T04:14:32.205Z,20.54
2018-09-25T04:15:32.213Z,20.54
2018-09-25T04:16:32.042Z,20.53
2018-09-25T04:17:32.197Z,20.54
2018-09-25T04:18:32.070Z,20.54
2018-09-25T04:19:32.307Z,20.54
2018-09-25T04:20:31.853Z,20.55
2018-09-25T04:21:31.962Z,20.54
2018-09-25T04:22:32.536Z,20.54
2018-09-25T04:23:32.146Z,20.55
2018-09-25T04:24:32.006Z,20.55
2018-09-25T04:25:32.059Z,20.57
2018-09-25T04:26:32.084Z,20.57
2018-09-25T04:27:32.378Z,20.57
2018-09-25T04:28:33.026Z,20.54
2018-09-25T04:29:31.923Z,20.53
2018-09-25T04:30:32.098Z,20.55
2018-09-25T04:31:32.002Z,20.54
2018-09-25T04:32:32.029Z,20.54
2018-09-25T04:33:31.952Z,20.54
2018-09-25T04:34:32.140Z,20.53
2018-09-25T04:35:32.032Z,20.53
2018-09-25T04:36:32.176Z,20.53
2018-09-25T04:37:31.920Z,20.54
2018-09-25T04:38:32.417Z,20.54
2018-09-25T04:39:31.971Z,20.53
2018-09-25T04:40:32.322Z,20.51
2018-09-25T04:41:32.358Z,20.55
2018-09-25T04:42:32.495Z,20.54
2018-09-25T04:43:31.896Z,20.53
2018-09-25T04:44:32.082Z,20.54
2018-09-25T04:45:31.857Z,20.51
2018-09-25T04:46:32.380Z,20.53
2018-09-25T04:47:32.388Z,20.53
2018-09-25T04:48:32.199Z,20.53
2018-09-25T04:49:31.982Z,20.54
2018-09-25T04:50:31.913Z,20.53
2018-09-25T04:51:31.931Z,20.54
2018-09-25T04:52:32.215Z,20.53
2018-09-25T04:53:32.039Z,20.54
2018-09-25T04:54:31.958Z,20.51
2018-09-25T04:55:32.499Z,20.55
2018-09-25T04:56:31.907Z,20.51
2018-09-25T04:57:32.066Z,20.5
2018-09-25T04:58:32.154Z,20.53
2018-09-25T04:59:32.059Z,20.53
2018-09-25T05:00:31.866Z,20.51
2018-09-25T05:01:31.964Z,20.53
2018-09-25T05:02:32.200Z,20.53
2018-09-25T05:03:32.286Z,20.5
2018-09-25T05:04:32.030Z,20.5
2018-09-25T05:05:31.948Z,20.53
2018-09-25T05:06:32.314Z,20.51
2018-09-25T05:07:31.798Z,20.53
2018-09-25T05:08:32.062Z,20.51
2018-09-25T05:09:32.039Z,20.51
2018-09-25T05:10:32.006Z,20.53
2018-09-25T05:11:32.277Z,20.51
2018-09-25T05:12:31.882Z,20.51
2018-09-25T05:13:32.115Z,20.51
2018-09-25T05:14:32.067Z,20.53
2018-09-25T05:15:32.124Z,20.53
2018-09-25T05:16:32.481Z,20.53
2018-09-25T05:17:32.110Z,20.53
2018-09-25T05:18:32.030Z,20.51
2018-09-25T05:19:32.116Z,20.51
2018-09-25T05:20:32.010Z,20.51
2018-09-25T05:21:32.477Z,20.51
2018-09-25T05:22:32.012Z,20.53
2018-09-25T05:23:33.195Z,20.53
2018-09-25T05:24:32.150Z,20.54
2018-09-25T05:25:32.467Z,20.55
2018-09-25T05:26:32.248Z,20.53
2018-09-25T05:27:32.153Z,20.54
2018-09-25T05:28:32.061Z,20.53
2018-09-25T05:29:32.129Z,20.51
2018-09-25T05:30:31.901Z,20.53
2018-09-25T05:31:32.045Z,20.51
2018-09-25T05:32:31.800Z,20.53
2018-09-25T05:33:32.437Z,20.53
2018-09-25T05:34:32.427Z,20.51
2018-09-25T05:35:32.254Z,20.5
2018-09-25T05:36:32.108Z,20.5
2018-09-25T05:37:32.123Z,20.48
2018-09-25T05:38:32.070Z,20.5
2018-09-25T05:39:32.077Z,20.5
2018-09-25T05:40:32.152Z,20.51
2018-09-25T05:41:32.312Z,20.48
2018-09-25T05:42:31.998Z,20.51
2018-09-25T05:43:32.165Z,20.51
2018-09-25T05:44:32.147Z,20.51
2018-09-25T05:45:31.925Z,20.5
2018-09-25T05:46:32.303Z,20.48
2018-09-25T05:47:32.115Z,20.5
2018-09-25T05:48:33.461Z,20.5
2018-09-25T05:49:31.892Z,20.53
2018-09-25T05:50:31.910Z,20.48
2018-09-25T05:51:31.917Z,20.5
2018-09-25T05:52:32.478Z,20.51
2018-09-25T05:53:31.904Z,20.5
2018-09-25T05:54:32.282Z,20.48
2018-09-25T05:55:32.521Z,20.5
2018-09-25T05:56:32.336Z,20.51
2018-09-25T05:57:31.921Z,20.53
2018-09-25T05:58:31.978Z,20.51
2018-09-25T05:59:32.078Z,20.51
2018-09-25T06:00:32.043Z,20.51
2018-09-25T06:01:31.944Z,20.53
2018-09-25T06:02:32.135Z,20.51
2018-09-25T06:03:32.157Z,20.51
2018-09-25T06:04:32.726Z,20.51
2018-09-25T06:05:31.938Z,20.5
2018-09-25T06:06:31.954Z,20.47
2018-09-25T06:07:32.109Z,20.48
2018-09-25T06:08:32.222Z,20.48
2018-09-25T06:09:32.816Z,20.5
2018-09-25T06:10:32.184Z,20.5
2018-09-25T06:11:31.976Z,20.51
2018-09-25T06:12:32.027Z,20.48
2018-09-25T06:13:32.138Z,20.51
2018-09-25T06:14:31.978Z,20.5
2018-09-25T06:15:32.112Z,20.5
2018-09-25T06:16:31.966Z,20.5
2018-09-25T06:17:31.982Z,20.5
2018-09-25T06:18:31.931Z,20.51
2018-09-25T06:19:32.123Z,20.5
2018-09-25T06:20:31.838Z,20.5
2018-09-25T06:21:31.918Z,20.5
2018-09-25T06:22:31.903Z,20.48
2018-09-25T06:23:32.037Z,20.5
2018-09-25T06:24:31.970Z,20.5
2018-09-25T06:25:32.366Z,20.5
2018-09-25T06:26:31.889Z,20.48
2018-09-25T06:27:31.895Z,20.5
2018-09-25T06:28:31.824Z,20.48
2018-09-25T06:29:31.893Z,20.5
2018-09-25T06:30:31.964Z,20.5
2018-09-25T06:31:31.905Z,20.51
2018-09-25T06:32:31.915Z,20.5
2018-09-25T06:33:31.938Z,20.51
2018-09-25T06:34:33.050Z,20.48
2018-09-25T06:35:32.142Z,20.51
2018-09-25T06:36:32.064Z,20.53
2018-09-25T06:37:31.822Z,20.53
2018-09-25T06:38:31.793Z,20.51
2018-09-25T06:39:31.917Z,20.51
2018-09-25T06:40:31.823Z,20.51
2018-09-25T06:41:32.274Z,20.51
2018-09-25T06:42:32.112Z,20.5
2018-09-25T06:43:31.931Z,20.51
2018-09-25T06:44:31.942Z,20.5
2018-09-25T06:45:32.064Z,20.51
2018-09-25T06:46:32.033Z,20.5
2018-09-25T06:47:32.038Z,20.51
2018-09-25T06:48:32.149Z,20.5
2018-09-25T06:49:32.076Z,20.5
2018-09-25T06:50:32.040Z,20.53
2018-09-25T06:51:31.979Z,20.51
2018-09-25T06:52:32.354Z,20.51
2018-09-25T06:53:31.956Z,20.5
2018-09-25T06:54:31.821Z,20.5
2018-09-25T06:55:32.291Z,20.5
2018-09-25T06:56:32.357Z,20.5
2018-09-25T06:57:32.288Z,20.5
2018-09-25T06:58:32.027Z,20.5
2018-09-25T06:59:31.810Z,20.53
2018-09-25T07:00:31.950Z,20.51
2018-09-25T07:01:31.858Z,20.53
2018-09-25T07:02:31.833Z,20.48
2018-09-25T07:03:31.903Z,20.5
2018-09-25T07:04:31.967Z,20.51
2018-09-25T07:05:32.200Z,20.54
2018-09-25T07:06:32.039Z,20.51
2018-09-25T07:07:31.853Z,20.48
2018-09-25T07:08:32.385Z,20.5
2018-09-25T07:09:32.388Z,20.5
2018-09-25T07:10:34.116Z,20.51
2018-09-25T07:11:32.175Z,20.51
2018-09-25T07:12:31.995Z,20.47
2018-09-25T07:13:31.788Z,20.44
2018-09-25T07:14:32.021Z,20.27
2018-09-25T07:15:31.927Z,20.18
2018-09-25T07:16:31.973Z,20.08
2018-09-25T07:17:32.928Z,19.96
2018-09-25T07:18:31.804Z,19.91
2018-09-25T07:19:31.932Z,19.86
2018-09-25T07:20:31.895Z,19.78
2018-09-25T07:21:32.158Z,19.67
2018-09-25T07:22:32.074Z,19.64
2018-09-25T07:23:32.309Z,19.58
2018-09-25T07:24:32.978Z,19.54
2018-09-25T07:25:31.972Z,19.49
2018-09-25T07:26:31.963Z,19.4
2018-09-25T07:27:31.926Z,19.35
2018-09-25T07:28:31.807Z,19.33
2018-09-25T07:29:32.106Z,19.35
2018-09-25T07:30:32.220Z,19.42
2018-09-25T07:31:32.231Z,19.45
2018-09-25T07:32:32.250Z,19.52
2018-09-25T07:33:32.057Z,19.56
2018-09-25T07:34:31.843Z,19.58
2018-09-25T07:35:32.429Z,19.64
2018-09-25T07:36:32.276Z,19.68
2018-09-25T07:37:31.945Z,19.7
2018-09-25T07:38:32.285Z,19.75
2018-09-25T07:39:32.631Z,19.81
2018-09-25T07:40:31.905Z,19.81
2018-09-25T07:41:31.819Z,19.81
2018-09-25T07:42:31.867Z,19.78
2018-09-25T07:43:32.151Z,19.8
2018-09-25T07:44:32.082Z,19.8
2018-09-25T07:45:31.849Z,19.82
2018-09-25T07:46:32.115Z,19.84
2018-09-25T07:47:32.453Z,19.85
2018-09-25T07:48:32.028Z,19.82
2018-09-25T07:49:32.020Z,19.82
2018-09-25T07:50:31.793Z,19.82
2018-09-25T07:51:32.027Z,19.84
2018-09-25T07:52:31.959Z,19.84
2018-09-25T07:53:31.955Z,19.82
2018-09-25T07:54:31.836Z,19.84
2018-09-25T07:55:32.774Z,19.84
2018-09-25T07:56:31.789Z,19.86
2018-09-25T07:57:31.990Z,19.84
2018-09-25T07:58:31.928Z,19.84
2018-09-25T07:59:32.115Z,19.84
2018-09-25T08:00:31.845Z,19.82
2018-09-25T08:01:31.968Z,19.82
2018-09-25T08:02:32.031Z,19.84
2018-09-25T08:03:32.934Z,19.85
2018-09-25T08:04:31.911Z,19.85
2018-09-25T08:05:31.940Z,19.86
2018-09-25T08:06:32.030Z,19.85
2018-09-25T08:07:31.952Z,19.88
2018-09-25T08:08:31.983Z,19.92
2018-09-25T08:09:32.297Z,19.93
2018-09-25T08:10:32.169Z,19.95
2018-09-25T08:11:31.959Z,19.95
2018-09-25T08:12:31.862Z,19.99
2018-09-25T08:13:32.053Z,20.02
2018-09-25T08:14:32.022Z,20.01
2018-09-25T08:15:33.284Z,20.04
2018-09-25T08:16:32.081Z,20.07
2018-09-25T08:17:31.883Z,20.07
2018-09-25T08:18:32.091Z,20.09
2018-09-25T08:19:32.066Z,20.09
2018-09-25T08:20:31.922Z,20.12
2018-09-25T08:21:31.990Z,20.15
2018-09-25T08:22:32.372Z,20.15
2018-09-25T08:23:31.981Z,20.16
2018-09-25T08:24:32.016Z,20.18
2018-09-25T08:25:32.074Z,20.18
2018-09-25T08:26:32.433Z,20.22
2018-09-25T08:27:32.026Z,20.22
2018-09-25T08:28:31.803Z,20.22
2018-09-25T08:29:32.489Z,20.25
2018-09-25T08:30:31.793Z,20.23
2018-09-25T08:31:31.964Z,20.25
2018-09-25T08:32:32.165Z,20.26
2018-09-25T08:33:31.877Z,20.25
2018-09-25T08:34:32.130Z,20.27
2018-09-25T08:35:32.187Z,20.27
2018-09-25T08:36:32.067Z,20.3
2018-09-25T08:37:31.866Z,20.27
2018-09-25T08:38:32.069Z,20.32
2018-09-25T08:39:34.187Z,20.35
2018-09-25T08:40:31.872Z,20.36
2018-09-25T08:41:31.984Z,20.37
2018-09-25T08:42:31.862Z,20.36
2018-09-25T08:43:32.035Z,20.35
2018-09-25T08:44:32.448Z,20.39
2018-09-25T08:45:32.005Z,20.39
2018-09-25T08:46:31.866Z,20.39
2018-09-25T08:47:31.981Z,20.39
2018-09-25T08:48:32.027Z,20.4
2018-09-25T08:49:32.200Z,20.4
2018-09-25T08:50:31.756Z,20.43
2018-09-25T08:51:32.412Z,20.43
2018-09-25T08:52:31.995Z,20.43
2018-09-25T08:53:32.928Z,20.43
2018-09-25T08:54:32.196Z,20.44
2018-09-25T08:55:32.036Z,20.46
2018-09-25T08:56:32.020Z,20.47
2018-09-25T08:57:31.805Z,20.47
2018-09-25T08:58:31.894Z,20.46
2018-09-25T08:59:32.066Z,20.46
2018-09-25T09:00:32.047Z,20.44
2018-09-25T09:01:31.785Z,20.46
2018-09-25T09:02:31.772Z,20.44
2018-09-25T09:03:32.292Z,20.46
2018-09-25T09:04:31.821Z,20.47
2018-09-25T09:05:32.062Z,20.47
2018-09-25T09:06:32.254Z,20.43
2018-09-25T09:07:31.850Z,20.46
2018-09-25T09:08:31.876Z,20.48
2018-09-25T09:09:32.150Z,20.47
2018-09-25T09:10:32.053Z,20.43
2018-09-25T09:11:31.865Z,20.44
2018-09-25T09:12:31.849Z,20.46
2018-09-25T09:13:32.129Z,20.46
2018-09-25T09:14:32.131Z,20.47
2018-09-25T09:15:32.071Z,20.5
2018-09-25T09:16:31.737Z,20.46
2018-09-25T09:17:31.814Z,20.47
2018-09-25T09:18:31.829Z,20.46
2018-09-25T09:19:32.178Z,20.5
2018-09-25T09:20:32.045Z,20.51
2018-09-25T09:21:32.132Z,20.5
2018-09-25T09:22:31.788Z,20.5
2018-09-25T09:23:31.793Z,20.5
2018-09-25T09:24:31.830Z,20.5
2018-09-25T09:25:31.832Z,20.51
2018-09-25T09:26:32.013Z,20.5
2018-09-25T09:27:32.166Z,20.54
2018-09-25T09:28:31.933Z,20.48
2018-09-25T09:29:31.935Z,20.48
2018-09-25T09:30:32.104Z,20.47
2018-09-25T09:31:31.863Z,20.44
2018-09-25T09:32:32.546Z,20.43
2018-09-25T09:33:31.847Z,20.44
2018-09-25T09:34:31.764Z,20.44
2018-09-25T09:35:31.893Z,20.42
2018-09-25T09:36:32.027Z,20.46
2018-09-25T09:37:31.813Z,20.39
2018-09-25T09:38:32.202Z,20.42
2018-09-25T09:39:32.193Z,20.42
2018-09-25T09:40:32.072Z,20.46
2018-09-25T09:41:34.156Z,20.43
2018-09-25T09:42:31.985Z,20.43
2018-09-25T09:43:31.838Z,20.46
2018-09-25T09:44:31.899Z,20.47
2018-09-25T09:45:31.757Z,20.48
2018-09-25T09:46:32.010Z,20.5
2018-09-25T09:47:31.806Z,20.46
2018-09-25T09:48:31.945Z,20.47
2018-09-25T09:49:32.057Z,20.47
2018-09-25T09:50:33.252Z,20.47
2018-09-25T09:51:32.010Z,20.44
2018-09-25T09:52:32.063Z,20.44
2018-09-25T09:53:32.144Z,20.46
2018-09-25T09:54:32.048Z,20.47
2018-09-25T09:55:31.917Z,20.43
2018-09-25T09:56:33.129Z,20.43
2018-09-25T09:57:31.900Z,20.43
2018-09-25T09:58:31.943Z,20.43
2018-09-25T09:59:32.045Z,20.43
2018-09-25T10:00:32.053Z,20.44
2018-09-25T10:01:32.228Z,20.4
2018-09-25T10:02:31.915Z,20.42
2018-09-25T10:03:31.800Z,20.43
2018-09-25T10:04:32.248Z,20.42
2018-09-25T10:05:32.064Z,20.42
2018-09-25T10:06:31.883Z,20.42
2018-09-25T10:07:32.308Z,20.43
2018-09-25T10:08:31.872Z,20.42
2018-09-25T10:09:32.047Z,20.42
2018-09-25T10:10:32.431Z,20.42
2018-09-25T10:11:31.916Z,20.43
2018-09-25T10:12:33.397Z,20.42
2018-09-25T10:13:31.695Z,20.42
2018-09-25T10:14:32.232Z,20.4
2018-09-25T10:15:31.993Z,20.4
2018-09-25T10:16:31.915Z,20.43
2018-09-25T10:17:32.203Z,20.44
2018-09-25T10:18:31.950Z,20.43
2018-09-25T10:19:31.851Z,20.43
2018-09-25T10:20:32.005Z,20.44
2018-09-25T10:21:32.075Z,20.44
2018-09-25T10:22:32.084Z,20.43
2018-09-25T10:23:32.008Z,20.44
2018-09-25T10:24:32.193Z,20.42
2018-09-25T10:25:31.914Z,20.46
2018-09-25T10:26:31.938Z,20.43
2018-09-25T10:27:32.282Z,20.46
2018-09-25T10:28:31.990Z,20.42
2018-09-25T10:29:32.217Z,20.42
2018-09-25T10:30:31.715Z,20.43
2018-09-25T10:31:32.226Z,20.42
2018-09-25T10:32:31.957Z,20.43
2018-09-25T10:33:32.379Z,20.44
2018-09-25T10:34:32.123Z,20.42
2018-09-25T10:35:31.851Z,20.43
2018-09-25T10:36:32.897Z,20.43
2018-09-25T10:37:32.048Z,20.4
2018-09-25T10:38:32.395Z,20.4
2018-09-25T10:39:31.934Z,20.42
2018-09-25T10:40:32.009Z,20.43
2018-09-25T10:41:32.255Z,20.4
2018-09-25T10:42:31.890Z,20.42
2018-09-25T10:43:31.813Z,20.4
2018-09-25T10:44:32.179Z,20.43
2018-09-25T10:45:32.187Z,20.43
2018-09-25T10:46:32.074Z,20.42
2018-09-25T10:47:32.010Z,20.4
2018-09-25T10:48:31.903Z,20.42
2018-09-25T10:49:32.028Z,20.42
2018-09-25T10:50:32.339Z,20.4
2018-09-25T10:51:32.040Z,20.42
2018-09-25T10:52:31.952Z,20.4
2018-09-25T10:53:31.732Z,20.37
2018-09-25T10:54:31.883Z,20.39
2018-09-25T10:55:33.083Z,20.39
2018-09-25T10:56:31.791Z,20.39
2018-09-25T10:57:31.870Z,20.4
2018-09-25T10:58:31.872Z,20.39
2018-09-25T10:59:32.070Z,20.39
2018-09-25T11:00:31.931Z,20.4
2018-09-25T11:01:31.978Z,20.39
2018-09-25T11:02:31.816Z,20.39
2018-09-25T11:03:31.850Z,20.37
2018-09-25T11:04:31.912Z,20.37
2018-09-25T11:05:31.742Z,20.37
2018-09-25T11:06:31.928Z,20.37
2018-09-25T11:07:32.137Z,20.36
2018-09-25T11:08:32.094Z,20.37
2018-09-25T11:09:31.775Z,20.37
2018-09-25T11:10:31.740Z,20.39
2018-09-25T11:11:31.859Z,20.36
2018-09-25T11:12:31.815Z,20.39
2018-09-25T11:13:31.932Z,20.43
2018-09-25T11:14:31.788Z,20.42
2018-09-25T11:15:31.782Z,20.4
2018-09-25T11:16:31.875Z,20.4
2018-09-25T11:17:32.175Z,20.4
2018-09-25T11:18:31.920Z,20.43
2018-09-25T11:19:31.914Z,20.42
2018-09-25T11:20:32.241Z,20.42
2018-09-25T11:21:31.843Z,20.43
2018-09-25T11:22:32.198Z,20.44
2018-09-25T11:23:31.823Z,20.44
2018-09-25T11:24:31.953Z,20.46
2018-09-25T11:25:33.162Z,20.47
2018-09-25T11:26:32.041Z,20.46
2018-09-25T11:27:32.066Z,20.48
2018-09-25T11:28:32.256Z,20.47
2018-09-25T11:29:32.017Z,20.48
2018-09-25T11:30:32.032Z,20.5
2018-09-25T11:31:32.207Z,20.5
2018-09-25T11:32:32.273Z,20.51
2018-09-25T11:33:31.865Z,20.54
2018-09-25T11:34:33.063Z,20.54
2018-09-25T11:35:31.758Z,20.57
2018-09-25T11:36:31.906Z,20.5
2018-09-25T11:37:31.902Z,20.53
2018-09-25T11:38:32.175Z,20.51
2018-09-25T11:39:31.876Z,20.53
2018-09-25T11:40:31.958Z,20.51
2018-09-25T11:41:32.087Z,20.55
2018-09-25T11:42:31.940Z,20.53
2018-09-25T11:43:32.249Z,20.54
2018-09-25T11:44:31.929Z,20.54
2018-09-25T11:45:31.961Z,20.51
2018-09-25T11:46:32.003Z,20.51
2018-09-25T11:47:32.141Z,20.53
2018-09-25T11:48:31.819Z,20.54
2018-09-25T11:49:31.858Z,20.53
2018-09-25T11:50:32.151Z,20.54
2018-09-25T11:51:31.990Z,20.59
2018-09-25T11:52:31.838Z,20.59
2018-09-25T11:53:31.861Z,20.59
2018-09-25T11:54:31.747Z,20.6
2018-09-25T11:55:32.084Z,20.57
2018-09-25T11:56:32.128Z,20.59
2018-09-25T11:57:31.768Z,20.59
2018-09-25T11:58:33.351Z,20.59
2018-09-25T11:59:31.854Z,20.6
2018-09-25T12:00:32.127Z,20.59
2018-09-25T12:01:32.102Z,20.57
2018-09-25T12:02:32.155Z,20.59
2018-09-25T12:03:31.724Z,20.59
2018-09-25T12:04:32.610Z,20.6
2018-09-25T12:05:31.791Z,20.61
2018-09-25T12:06:31.838Z,20.61
2018-09-25T12:07:31.844Z,20.64
2018-09-25T12:08:32.310Z,20.63
2018-09-25T12:09:32.095Z,20.63
2018-09-25T12:10:31.754Z,20.64
2018-09-25T12:11:31.863Z,20.66
2018-09-25T12:12:32.038Z,20.61
2018-09-25T12:13:32.139Z,20.63
2018-09-25T12:14:31.816Z,20.63
2018-09-25T12:15:32.088Z,20.61
2018-09-25T12:16:32.345Z,20.61
2018-09-25T12:17:32.803Z,20.59
2018-09-25T12:18:31.811Z,20.61
2018-09-25T12:19:32.354Z,20.6
2018-09-25T12:20:32.300Z,20.59
2018-09-25T12:21:31.846Z,20.6
2018-09-25T12:22:31.783Z,20.59
2018-09-25T12:23:32.179Z,20.61
2018-09-25T12:24:31.829Z,20.63
2018-09-25T12:25:32.055Z,20.61
2018-09-25T12:26:31.776Z,20.61
2018-09-25T12:27:31.705Z,20.61
2018-09-25T12:28:31.951Z,20.64
2018-09-25T12:29:31.731Z,20.61
2018-09-25T12:30:32.093Z,20.63
2018-09-25T12:31:31.771Z,20.63
2018-09-25T12:32:32.195Z,20.57
2018-09-25T12:33:31.873Z,20.57
2018-09-25T12:34:31.797Z,20.57
2018-09-25T12:35:31.867Z,20.6
2018-09-25T12:36:32.111Z,20.61
2018-09-25T12:37:31.852Z,20.61
2018-09-25T12:38:31.826Z,20.59
2018-09-25T12:39:31.742Z,20.61
2018-09-25T12:40:31.898Z,20.54
2018-09-25T12:41:31.715Z,20.55
2018-09-25T12:42:31.690Z,20.53
2018-09-25T12:43:31.758Z,20.54
2018-09-25T12:44:31.919Z,20.53
2018-09-25T12:45:32.020Z,20.51
2018-09-25T12:46:31.994Z,20.51
2018-09-25T12:47:32.296Z,20.53
2018-09-25T12:48:31.814Z,20.54
2018-09-25T12:49:31.890Z,20.55
2018-09-25T12:50:31.958Z,20.51
2018-09-25T12:51:32.032Z,20.53
2018-09-25T12:52:32.461Z,20.54
2018-09-25T12:53:31.886Z,20.55
2018-09-25T12:54:31.988Z,20.51
2018-09-25T12:55:31.989Z,20.53
2018-09-25T12:56:32.413Z,20.5